createdAt,value
2023-02-28T00:00:16.848Z,68.64
2023-02-28T00:02:47.938Z,69.29
2023-02-28T00:05:20.757Z,68.79
2023-02-28T00:07:51.472Z,68.54
2023-02-28T00:10:26.429Z,69.65
2023-02-28T00:13:01.259Z,69.14
2023-02-28T00:15:31.098Z,68.73
2023-02-28T00:18:01.029Z,68.78
2023-02-28T00:20:30.605Z,68.78
2023-02-28T00:23:00.216Z,68.65
2023-02-28T00:25:30.301Z,69.38
2023-02-28T00:28:00.121Z,68.90
2023-02-28T00:30:29.766Z,69.32
2023-02-28T00:33:00.366Z,69.12
2023-02-28T00:35:33.388Z,69.18
2023-02-28T00:38:03.358Z,69.05
2023-02-28T00:40:34.433Z,69.05
2023-02-28T00:43:04.979Z,69.23
2023-02-28T00:45:34.750Z,69.00
2023-02-28T00:48:07.096Z,68.31
2023-02-28T00:50:37.190Z,67.84
2023-02-28T00:53:06.979Z,68.36
2023-02-28T00:55:37.455Z,69.05
2023-02-28T00:58:09.705Z,68.58
2023-02-28T01:00:39.530Z,68.46
2023-02-28T01:03:09.632Z,69.55
2023-02-28T01:05:39.594Z,69.28
2023-02-28T01:08:11.175Z,69.30
2023-02-28T01:10:44.112Z,69.73
2023-02-28T01:13:14.524Z,69.23
2023-02-28T01:15:47.462Z,69.23
2023-02-28T01:18:17.113Z,69.66
2023-02-28T01:20:47.176Z,69.69
2023-02-28T01:23:18.803Z,69.89
2023-02-28T01:25:49.433Z,69.52
2023-02-28T01:28:19.077Z,69.55
2023-02-28T01:30:52.890Z,69.17
2023-02-28T01:33:24.603Z,68.72
2023-02-28T01:36:11.041Z,69.23
2023-02-28T01:38:42.398Z,69.36
2023-02-28T01:41:23.968Z,69.54
2023-02-28T01:43:59.616Z,69.18
2023-02-28T01:46:29.456Z,69.18
2023-02-28T01:49:02.368Z,69.72
2023-02-28T01:51:55.708Z,69.88
2023-02-28T01:54:28.602Z,69.55
2023-02-28T01:57:04.166Z,69.09
2023-02-28T01:59:38.502Z,68.47
2023-02-28T02:02:09.822Z,69.54
2023-02-28T02:04:42.734Z,70.03
2023-02-28T02:07:14.650Z,69.29
2023-02-28T02:09:46.219Z,69.48
2023-02-28T02:12:30.863Z,69.46
2023-02-28T02:15:09.389Z,69.55
2023-02-28T02:17:45.073Z,69.11
2023-02-28T02:20:46.201Z,69.47
2023-02-28T02:23:44.592Z,69.20
2023-02-28T02:26:40.504Z,68.66
2023-02-28T02:29:44.499Z,69.16
2023-02-28T02:32:22.626Z,68.61
2023-02-28T02:35:11.367Z,68.09
2023-02-28T02:37:50.114Z,68.41
2023-02-28T02:40:31.294Z,68.25
2023-02-28T02:43:16.031Z,68.25
2023-02-28T02:45:54.655Z,67.96
2023-02-28T02:48:29.889Z,67.57
2023-02-28T02:51:04.644Z,67.66
2023-02-28T02:53:37.718Z,67.37
2023-02-28T02:56:10.684Z,67.20
2023-02-28T02:58:44.254Z,67.16
2023-02-28T03:01:21.721Z,67.85
2023-02-28T03:03:51.716Z,68.32
2023-02-28T03:06:21.917Z,68.32
2023-02-28T03:08:52.005Z,69.05
2023-02-28T03:11:22.445Z,68.66
2023-02-28T03:14:06.952Z,68.79
2023-02-28T03:16:42.412Z,68.42
2023-02-28T03:19:34.629Z,68.16
2023-02-28T03:22:33.350Z,68.41
2023-02-28T03:25:15.226Z,68.04
2023-02-28T03:27:48.226Z,67.65
2023-02-28T03:30:26.654Z,67.68
2023-02-28T03:33:11.264Z,67.56
2023-02-28T03:35:47.191Z,67.14
2023-02-28T03:38:42.210Z,67.50
2023-02-28T03:41:18.184Z,67.48
2023-02-28T03:43:56.019Z,66.74
2023-02-28T03:46:28.947Z,66.89
2023-02-28T03:49:07.972Z,66.31
2023-02-28T03:51:40.121Z,65.52
2023-02-28T03:54:14.214Z,65.65
2023-02-28T03:56:47.003Z,65.50
2023-02-28T03:59:28.524Z,65.79
2023-02-28T04:01:59.809Z,66.17
2023-02-28T04:04:29.987Z,65.54
2023-02-28T04:07:08.507Z,66.02
2023-02-28T04:09:38.877Z,65.37
2023-02-28T04:12:10.570Z,65.74
2023-02-28T04:14:40.749Z,65.67
2023-02-28T04:17:10.636Z,66.24
2023-02-28T04:19:40.332Z,66.40
2023-02-28T04:22:12.312Z,66.26
2023-02-28T04:24:42.540Z,66.27
2023-02-28T04:27:12.619Z,66.27
2023-02-28T04:29:44.063Z,66.36
2023-02-28T04:32:13.856Z,66.36
2023-02-28T04:34:43.720Z,66.89
2023-02-28T04:37:14.495Z,67.50
2023-02-28T04:39:44.820Z,67.35
2023-02-28T04:42:14.835Z,67.01
2023-02-28T04:44:44.590Z,67.54
2023-02-28T04:47:14.814Z,67.33
2023-02-28T04:49:44.381Z,67.34
2023-02-28T04:52:14.225Z,67.34
2023-02-28T04:54:43.977Z,67.63
2023-02-28T04:57:13.901Z,67.46
2023-02-28T04:59:43.952Z,67.01
2023-02-28T05:02:15.518Z,66.66
2023-02-28T05:04:44.997Z,66.86
2023-02-28T05:07:15.091Z,66.50
2023-02-28T05:09:44.969Z,66.95
2023-02-28T05:12:14.440Z,66.94
2023-02-28T05:14:45.124Z,67.85
2023-02-28T05:17:14.962Z,67.10
2023-02-28T05:19:44.721Z,67.09
2023-02-28T05:22:19.738Z,66.52
2023-02-28T05:24:52.953Z,67.01
2023-02-28T05:27:22.817Z,67.43
2023-02-28T05:29:53.182Z,67.66
2023-02-28T05:32:22.909Z,67.43
2023-02-28T05:34:52.676Z,67.41
2023-02-28T05:37:22.810Z,67.77
2023-02-28T05:39:52.646Z,66.84
2023-02-28T05:42:22.218Z,66.36
2023-02-28T05:44:52.926Z,66.46
2023-02-28T05:47:22.763Z,66.69
2023-02-28T05:49:52.838Z,66.40
2023-02-28T05:52:25.631Z,66.33
2023-02-28T05:54:55.509Z,66.18
2023-02-28T05:57:25.931Z,66.69
2023-02-28T05:59:55.697Z,66.69
2023-02-28T06:02:25.515Z,66.70
2023-02-28T06:04:55.667Z,66.70
2023-02-28T06:07:27.558Z,64.91
2023-02-28T06:09:57.663Z,64.91
2023-02-28T06:12:27.676Z,65.84
2023-02-28T06:14:57.517Z,66.62
2023-02-28T06:17:27.392Z,65.98
2023-02-28T06:19:57.201Z,66.66
2023-02-28T06:22:26.780Z,65.15
2023-02-28T06:24:57.860Z,65.77
2023-02-28T06:27:27.728Z,65.39
2023-02-28T06:29:57.985Z,64.90
2023-02-28T06:32:27.841Z,66.38
2023-02-28T06:34:59.057Z,66.30
2023-02-28T06:37:28.580Z,64.55
2023-02-28T06:39:58.673Z,64.09
2023-02-28T06:42:29.759Z,65.47
2023-02-28T06:44:59.973Z,65.47
2023-02-28T06:47:29.755Z,63.79
2023-02-28T06:49:59.609Z,63.79
2023-02-28T06:52:29.120Z,64.33
2023-02-28T06:55:01.772Z,63.95
2023-02-28T06:57:32.706Z,64.59
2023-02-28T07:00:05.424Z,63.13
2023-02-28T07:02:35.718Z,62.90
2023-02-28T07:05:09.584Z,62.47
2023-02-28T07:07:41.144Z,62.50
2023-02-28T07:10:14.514Z,62.51
2023-02-28T07:12:46.223Z,62.72
2023-02-28T07:15:16.106Z,62.36
2023-02-28T07:17:46.079Z,62.21
2023-02-28T07:20:15.751Z,63.15
2023-02-28T07:22:45.310Z,62.23
2023-02-28T07:25:15.158Z,62.15
2023-02-28T07:27:44.906Z,61.81
2023-02-28T07:30:15.706Z,62.03
2023-02-28T07:32:46.000Z,60.95
2023-02-28T07:35:16.349Z,60.58
2023-02-28T07:37:48.025Z,59.47
2023-02-28T07:40:18.817Z,59.71
2023-02-28T07:42:48.518Z,58.64
2023-02-28T07:45:20.599Z,58.00
2023-02-28T07:47:50.632Z,58.08
2023-02-28T07:50:20.474Z,57.92
2023-02-28T07:52:50.333Z,56.04
2023-02-28T07:55:21.393Z,56.08
2023-02-28T07:57:51.237Z,55.08
2023-02-28T08:00:21.561Z,54.00
2023-02-28T08:02:52.161Z,53.68
2023-02-28T08:05:22.489Z,51.03
2023-02-28T08:07:52.492Z,47.51
2023-02-28T08:10:22.180Z,47.51
2023-02-28T08:12:52.301Z,49.21
2023-02-28T08:15:22.001Z,47.81
2023-02-28T08:17:53.418Z,47.85
2023-02-28T08:20:23.381Z,46.11
2023-02-28T08:22:53.366Z,45.73
2023-02-28T08:25:23.140Z,45.58
2023-02-28T08:27:55.903Z,45.69
2023-02-28T08:30:25.780Z,43.96
2023-02-28T08:32:56.316Z,45.18
2023-02-28T08:35:26.167Z,44.17
2023-02-28T08:37:56.013Z,43.63
2023-02-28T08:40:25.915Z,43.89
2023-02-28T08:42:55.785Z,43.82
2023-02-28T08:45:25.735Z,44.05
2023-02-28T08:47:56.899Z,42.94
2023-02-28T08:50:26.662Z,41.59
2023-02-28T08:52:56.529Z,42.98
2023-02-28T08:55:28.678Z,42.24
2023-02-28T08:57:59.503Z,41.01
2023-02-28T09:00:29.124Z,41.01
2023-02-28T09:02:58.917Z,41.34
2023-02-28T09:05:30.286Z,42.40
2023-02-28T09:08:00.161Z,40.63
2023-02-28T09:10:29.791Z,40.31
2023-02-28T09:12:59.604Z,39.44
2023-02-28T09:15:29.376Z,39.44
2023-02-28T09:18:01.195Z,39.51
2023-02-28T09:20:30.679Z,40.06
2023-02-28T09:23:00.805Z,39.38
2023-02-28T09:25:30.674Z,39.81
2023-02-28T09:28:00.464Z,40.18
2023-02-28T09:30:30.333Z,39.00
2023-02-28T09:33:00.185Z,39.20
2023-02-28T09:35:31.672Z,38.48
2023-02-28T09:38:03.137Z,37.96
2023-02-28T09:40:33.433Z,38.99
2023-02-28T09:43:03.397Z,38.59
2023-02-28T09:45:36.230Z,37.52
2023-02-28T09:48:29.368Z,38.43
2023-02-28T09:51:07.873Z,37.25
2023-02-28T09:53:40.936Z,38.33
2023-02-28T09:56:17.473Z,36.92
2023-02-28T09:59:04.631Z,37.53
2023-02-28T10:01:43.278Z,35.67
2023-02-28T10:04:27.899Z,35.67
2023-02-28T10:06:58.788Z,35.93
2023-02-28T10:09:31.863Z,36.69
2023-02-28T10:12:09.975Z,36.98
2023-02-28T10:14:42.807Z,36.39
2023-02-28T10:17:19.670Z,35.97
2023-02-28T10:20:05.436Z,36.23
2023-02-28T10:22:38.457Z,35.76
2023-02-28T10:25:20.483Z,34.56
2023-02-28T10:27:51.110Z,34.59
2023-02-28T10:30:23.530Z,34.87
2023-02-28T10:32:57.449Z,34.49
2023-02-28T10:35:28.743Z,34.93
2023-02-28T10:38:01.846Z,34.14
2023-02-28T10:40:34.685Z,34.10
2023-02-28T10:43:17.976Z,34.45
2023-02-28T10:46:04.362Z,33.75
2023-02-28T10:48:51.996Z,33.75
2023-02-28T10:51:23.558Z,34.56
2023-02-28T10:54:01.611Z,34.63
2023-02-28T10:56:29.618Z,34.24
2023-02-28T10:59:12.785Z,34.13
2023-02-28T11:01:49.295Z,33.46
2023-02-28T11:04:30.819Z,34.29
2023-02-28T11:07:08.650Z,33.61
2023-02-28T11:09:41.672Z,33.34
2023-02-28T11:12:25.188Z,34.06
2023-02-28T11:15:03.916Z,32.89
2023-02-28T11:17:35.042Z,34.07
2023-02-28T11:20:08.854Z,33.26
2023-02-28T11:22:44.627Z,32.79
2023-02-28T11:25:19.262Z,33.42
2023-02-28T11:27:57.488Z,33.51
2023-02-28T11:30:30.325Z,32.77
2023-02-28T11:32:59.951Z,33.34
2023-02-28T11:35:36.003Z,32.52
2023-02-28T11:38:13.679Z,33.12
2023-02-28T11:41:01.393Z,32.93
2023-02-28T11:43:52.266Z,33.09
2023-02-28T11:46:52.236Z,32.84
2023-02-28T11:49:33.833Z,32.04
2023-02-28T11:52:15.256Z,32.04
2023-02-28T11:55:06.225Z,32.85
2023-02-28T11:57:39.086Z,33.49
2023-02-28T12:00:26.250Z,33.00
2023-02-28T12:03:22.767Z,33.11
2023-02-28T12:05:55.806Z,33.05
2023-02-28T12:08:46.750Z,33.00
2023-02-28T12:11:29.147Z,32.71
2023-02-28T12:14:23.115Z,33.63
2023-02-28T12:16:58.611Z,33.54
2023-02-28T12:19:44.715Z,33.28
2023-02-28T12:22:30.377Z,32.51
2023-02-28T12:25:20.833Z,33.67
2023-02-28T12:27:53.466Z,33.34
2023-02-28T12:30:25.708Z,32.50
2023-02-28T12:33:07.318Z,32.85
2023-02-28T12:35:44.345Z,32.97
2023-02-28T12:38:23.150Z,32.42
2023-02-28T12:41:15.222Z,32.47
2023-02-28T12:43:48.426Z,32.94
2023-02-28T12:46:24.214Z,33.02
2023-02-28T12:48:57.640Z,33.21
2023-02-28T12:51:29.055Z,32.51
2023-02-28T12:54:29.243Z,31.89
2023-02-28T12:57:27.889Z,32.85
2023-02-28T13:00:00.749Z,32.48
2023-02-28T13:03:00.606Z,33.11
2023-02-28T13:05:34.975Z,31.46
2023-02-28T13:08:35.313Z,32.25
2023-02-28T13:11:09.998Z,33.05
2023-02-28T13:13:37.254Z,32.49
2023-02-28T13:16:13.040Z,33.21
2023-02-28T13:18:45.858Z,32.67
2023-02-28T13:21:30.532Z,32.70
2023-02-28T13:24:03.654Z,31.44
2023-02-28T13:26:39.375Z,32.73
2023-02-28T13:29:20.871Z,32.67
2023-02-28T13:32:11.546Z,32.45
2023-02-28T13:34:43.757Z,32.14
2023-02-28T13:37:27.060Z,32.32
2023-02-28T13:40:00.878Z,33.09
2023-02-28T13:42:48.329Z,33.12
2023-02-28T13:45:29.336Z,33.12
2023-02-28T13:48:04.703Z,32.17
2023-02-28T13:50:38.881Z,32.09
2023-02-28T13:53:20.827Z,32.21
2023-02-28T13:56:18.860Z,32.01
2023-02-28T13:58:56.781Z,32.01
2023-02-28T14:01:33.082Z,31.54
2023-02-28T14:04:38.856Z,32.23
2023-02-28T14:07:11.267Z,32.43
2023-02-28T14:09:44.232Z,32.06
2023-02-28T14:12:49.995Z,32.78
2023-02-28T14:15:35.128Z,32.50
2023-02-28T14:18:09.548Z,32.63
2023-02-28T14:20:40.868Z,33.07
2023-02-28T14:23:28.548Z,32.18
2023-02-28T14:26:07.842Z,32.54
2023-02-28T14:28:52.690Z,32.46
2023-02-28T14:31:30.071Z,31.85
2023-02-28T14:34:08.788Z,32.69
2023-02-28T14:36:40.655Z,32.23
2023-02-28T14:39:22.736Z,30.28
2023-02-28T14:41:53.040Z,29.15
2023-02-28T14:44:28.202Z,29.02
2023-02-28T14:47:07.090Z,30.05
2023-02-28T14:49:42.415Z,30.45
2023-02-28T14:52:19.613Z,32.42
2023-02-28T14:54:54.966Z,31.89
2023-02-28T14:57:33.001Z,32.25
2023-02-28T15:00:17.986Z,31.77
2023-02-28T15:02:50.690Z,31.09
2023-02-28T15:05:29.110Z,30.94
2023-02-28T15:08:21.454Z,31.42
2023-02-28T15:11:03.250Z,31.79
2023-02-28T15:13:45.943Z,32.33
2023-02-28T15:16:24.639Z,32.22
2023-02-28T15:19:00.219Z,32.46
2023-02-28T15:21:33.279Z,33.17
2023-02-28T15:24:05.953Z,33.04
2023-02-28T15:26:44.760Z,32.98
2023-02-28T15:29:23.320Z,33.46
2023-02-28T15:31:58.804Z,33.39
2023-02-28T15:34:42.882Z,33.62
2023-02-28T15:37:31.639Z,33.19
2023-02-28T15:40:19.191Z,34.01
2023-02-28T15:43:04.484Z,33.33
2023-02-28T15:46:02.630Z,33.73
2023-02-28T15:48:51.456Z,34.06
2023-02-28T15:51:23.519Z,33.91
2023-02-28T15:54:02.624Z,34.11
2023-02-28T15:56:35.963Z,34.11
2023-02-28T15:59:08.741Z,34.10
2023-02-28T16:01:40.416Z,34.90
2023-02-28T16:04:20.112Z,34.85
2023-02-28T16:07:01.763Z,34.31
2023-02-28T16:09:34.419Z,35.10
2023-02-28T16:12:06.418Z,34.27
2023-02-28T16:14:39.732Z,35.27
2023-02-28T16:17:24.212Z,35.40
2023-02-28T16:19:54.500Z,35.62
2023-02-28T16:25:05.237Z,35.86
2023-02-28T16:27:38.008Z,35.61
2023-02-28T16:30:12.303Z,35.21
2023-02-28T16:32:42.128Z,35.21
2023-02-28T16:35:15.147Z,36.54
2023-02-28T16:37:44.878Z,36.84
2023-02-28T16:40:19.149Z,36.03
2023-02-28T16:42:51.207Z,36.28
2023-02-28T16:45:23.718Z,35.96
2023-02-28T16:47:54.103Z,36.87
2023-02-28T16:50:26.372Z,36.68
2023-02-28T16:52:56.625Z,36.89
2023-02-28T16:55:28.368Z,36.44
2023-02-28T16:58:00.691Z,36.93
2023-02-28T17:00:32.411Z,37.60
2023-02-28T17:03:05.218Z,37.76
2023-02-28T17:05:38.478Z,37.67
2023-02-28T17:08:11.684Z,37.67
2023-02-28T17:10:41.456Z,38.04
2023-02-28T17:13:15.090Z,38.72
2023-02-28T17:15:43.443Z,38.70
2023-02-28T17:18:19.921Z,38.68
2023-02-28T17:20:50.724Z,39.07
2023-02-28T17:23:20.839Z,39.28
2023-02-28T17:25:58.211Z,39.70
2023-02-28T17:28:28.083Z,39.70
2023-02-28T17:30:57.973Z,39.08
2023-02-28T17:33:27.774Z,39.69
2023-02-28T17:35:57.741Z,39.73
2023-02-28T17:38:27.549Z,39.72
2023-02-28T17:40:58.282Z,40.10
2023-02-28T17:43:29.550Z,39.95
2023-02-28T17:45:59.671Z,39.86
2023-02-28T17:48:31.414Z,40.41
2023-02-28T17:51:01.226Z,40.81
2023-02-28T17:53:33.309Z,40.81
2023-02-28T17:56:03.386Z,40.74
2023-02-28T17:58:33.181Z,40.86
2023-02-28T18:01:03.236Z,41.14
2023-02-28T18:03:33.091Z,43.16
2023-02-28T18:06:04.162Z,43.23
2023-02-28T18:08:37.566Z,43.23
2023-02-28T18:11:07.387Z,44.00
2023-02-28T18:13:37.155Z,43.94
2023-02-28T18:16:07.545Z,44.58
2023-02-28T18:18:38.495Z,45.94
2023-02-28T18:21:09.904Z,44.59
2023-02-28T18:23:41.643Z,46.15
2023-02-28T18:26:12.200Z,44.82
2023-02-28T18:28:43.873Z,45.43
2023-02-28T18:31:16.680Z,47.52
2023-02-28T18:33:51.876Z,47.06
2023-02-28T18:36:22.627Z,47.95
2023-02-28T18:38:53.142Z,46.77
2023-02-28T18:41:23.373Z,46.51
2023-02-28T18:43:54.128Z,45.99
2023-02-28T18:46:24.319Z,46.25
2023-02-28T18:48:54.180Z,47.37
2023-02-28T18:51:29.034Z,47.02
2023-02-28T18:54:01.406Z,47.70
2023-02-28T18:56:31.593Z,48.74
2023-02-28T18:59:01.859Z,48.60
2023-02-28T19:01:33.544Z,47.80
2023-02-28T19:04:03.968Z,50.02
2023-02-28T19:06:35.133Z,50.95
2023-02-28T19:09:05.471Z,50.92
2023-02-28T19:11:36.682Z,51.66
2023-02-28T19:14:08.081Z,51.70
2023-02-28T19:16:38.290Z,52.05
2023-02-28T19:19:08.174Z,52.44
2023-02-28T19:21:38.012Z,52.18
2023-02-28T19:24:09.853Z,52.86
2023-02-28T19:26:39.688Z,53.16
2023-02-28T19:29:09.433Z,52.73
2023-02-28T19:31:39.282Z,52.34
2023-02-28T19:34:11.077Z,53.36
2023-02-28T19:36:40.840Z,53.63
2023-02-28T19:39:12.658Z,53.84
2023-02-28T19:41:42.716Z,53.79
2023-02-28T19:44:13.296Z,54.11
2023-02-28T19:46:44.366Z,53.86
2023-02-28T19:49:14.219Z,54.42
2023-02-28T19:51:44.554Z,54.17
2023-02-28T19:54:14.194Z,54.73
2023-02-28T19:56:44.057Z,54.25
2023-02-28T19:59:21.206Z,54.25
2023-02-28T20:01:46.266Z,54.08
2023-02-28T20:04:16.051Z,55.08
2023-02-28T20:06:45.810Z,54.82
2023-02-28T20:09:16.552Z,55.02
2023-02-28T20:11:47.536Z,54.93
2023-02-28T20:14:17.820Z,55.38
2023-02-28T20:16:48.130Z,55.08
2023-02-28T20:19:18.717Z,55.27
2023-02-28T20:21:48.587Z,55.36
2023-02-28T20:24:18.100Z,55.07
2023-02-28T20:26:47.949Z,55.34
2023-02-28T20:29:17.702Z,56.45
2023-02-28T20:31:47.764Z,56.09
2023-02-28T20:34:17.910Z,56.08
2023-02-28T20:36:47.814Z,56.43
2023-02-28T20:39:17.871Z,56.38
2023-02-28T20:41:47.629Z,56.27
2023-02-28T20:44:17.393Z,56.87
2023-02-28T20:46:47.138Z,57.47
2023-02-28T20:49:17.297Z,57.50
2023-02-28T20:51:47.106Z,57.15
2023-02-28T20:54:16.875Z,57.13
2023-02-28T20:56:46.798Z,57.13
2023-02-28T20:59:16.621Z,58.06
2023-02-28T21:01:46.536Z,56.88
2023-02-28T21:04:16.444Z,57.69
2023-02-28T21:06:47.893Z,57.50
2023-02-28T21:09:17.751Z,57.56
2023-02-28T21:11:47.966Z,56.72
2023-02-28T21:14:18.994Z,56.87
2023-02-28T21:16:48.888Z,56.92
2023-02-28T21:19:18.825Z,56.95
2023-02-28T21:21:49.014Z,56.69
2023-02-28T21:24:21.068Z,56.43
2023-02-28T21:26:51.874Z,56.44
2023-02-28T21:29:21.713Z,56.80
2023-02-28T21:31:53.877Z,57.83
2023-02-28T21:34:23.508Z,57.92
2023-02-28T21:36:54.343Z,57.59
2023-02-28T21:39:28.749Z,58.05
2023-02-28T21:42:00.509Z,58.72
2023-02-28T21:44:30.769Z,58.72
2023-02-28T21:47:03.287Z,58.38
2023-02-28T21:49:33.276Z,58.78
2023-02-28T21:52:03.038Z,58.40
2023-02-28T21:54:32.793Z,58.83
2023-02-28T21:57:02.619Z,58.68
2023-02-28T21:59:32.512Z,59.09
2023-02-28T22:02:02.369Z,59.19
2023-02-28T22:04:32.202Z,59.25
2023-02-28T22:07:02.165Z,58.72
2023-02-28T22:09:32.592Z,59.36
2023-02-28T22:12:02.655Z,58.79
2023-02-28T22:14:33.000Z,59.13
2023-02-28T22:17:03.162Z,59.58
2023-02-28T22:19:34.659Z,59.58
2023-02-28T22:22:04.437Z,59.66
2023-02-28T22:24:34.501Z,58.98
2023-02-28T22:27:04.331Z,58.91
2023-02-28T22:29:34.514Z,58.89
2023-02-28T22:32:04.770Z,58.54
2023-02-28T22:34:34.270Z,58.82
2023-02-28T22:37:04.052Z,59.51
2023-02-28T22:39:33.935Z,59.58
2023-02-28T22:42:03.693Z,59.51
2023-02-28T22:44:33.453Z,59.39
2023-02-28T22:47:03.580Z,59.31
2023-02-28T22:49:33.490Z,59.69
2023-02-28T22:52:03.263Z,59.46
2023-02-28T22:54:33.070Z,60.06
2023-02-28T22:57:02.973Z,59.03
2023-02-28T22:59:32.827Z,59.49
2023-02-28T23:02:02.637Z,59.52
2023-02-28T23:04:32.785Z,60.27
2023-02-28T23:07:02.555Z,60.51
2023-02-28T23:09:32.320Z,60.37
2023-02-28T23:12:02.057Z,60.37
2023-02-28T23:14:31.908Z,60.65
2023-02-28T23:17:01.980Z,59.86
2023-02-28T23:19:32.465Z,59.50
2023-02-28T23:22:03.550Z,59.29
2023-02-28T23:24:35.545Z,60.25
2023-02-28T23:27:07.248Z,60.26
2023-02-28T23:29:37.448Z,60.38
2023-02-28T23:32:09.070Z,61.06
2023-02-28T23:34:38.949Z,60.74
2023-02-28T23:37:08.745Z,60.93
2023-02-28T23:39:38.791Z,61.03
2023-02-28T23:42:10.944Z,60.99
2023-02-28T23:44:40.845Z,60.80
2023-02-28T23:47:12.242Z,61.17
2023-02-28T23:49:42.034Z,60.84
2023-02-28T23:52:14.021Z,61.22
2023-02-28T23:54:44.245Z,61.12
2023-02-28T23:57:14.154Z,61.38
2023-02-28T23:59:43.996Z,61.10
